createdAt,value
2019-02-12T00:00:28.827Z,101672.27
2019-02-12T00:02:57.698Z,101664.73
2019-02-12T00:05:26.548Z,101672.95
2019-02-12T00:07:55.419Z,101676.41
2019-02-12T00:10:24.283Z,101677.70
2019-02-12T00:12:53.142Z,101680.80
2019-02-12T00:15:22.009Z,101678.36
2019-02-12T00:17:50.878Z,101676.51
2019-02-12T00:20:19.728Z,101679.64
2019-02-12T00:22:48.633Z,101682.53
2019-02-12T00:25:17.501Z,101672.17
2019-02-12T00:27:46.386Z,101668.54
2019-02-12T00:30:15.261Z,101670.00
2019-02-12T00:32:44.124Z,101673.67
2019-02-12T00:35:12.992Z,101673.19
2019-02-12T00:37:41.884Z,101666.11
2019-02-12T00:40:10.983Z,101669.38
2019-02-12T00:42:39.854Z,101672.17
2019-02-12T00:45:10.505Z,101676.58
2019-02-12T00:47:39.359Z,101683.89
2019-02-12T00:50:11.740Z,101676.84
2019-02-12T00:52:40.600Z,101683.03
2019-02-12T00:55:09.896Z,101672.47
2019-02-12T00:57:38.761Z,101677.37
2019-02-12T01:00:14.710Z,101679.15
2019-02-12T01:02:43.593Z,101682.84
2019-02-12T01:05:13.014Z,101687.05
2019-02-12T01:07:41.847Z,101681.45
2019-02-12T01:10:11.604Z,101690.06
2019-02-12T01:12:40.501Z,101687.23
2019-02-12T01:15:12.302Z,101685.69
2019-02-12T01:17:41.159Z,101696.58
2019-02-12T01:20:12.366Z,101692.89
2019-02-12T01:22:41.204Z,101702.53
2019-02-12T01:25:10.150Z,101710.95
2019-02-12T01:27:39.035Z,101720.89
2019-02-12T01:30:17.040Z,101715.94
2019-02-12T01:32:46.058Z,101734.44
2019-02-12T01:35:14.909Z,101732.39
2019-02-12T01:37:43.787Z,101734.95
2019-02-12T01:40:13.151Z,101745.73
2019-02-12T01:42:41.996Z,101742.45
2019-02-12T01:45:12.107Z,101746.97
2019-02-12T01:47:40.996Z,101747.75
2019-02-12T01:50:11.773Z,101733.33
2019-02-12T01:52:40.636Z,101759.92
2019-02-12T01:55:09.497Z,101760.85
2019-02-12T01:57:38.348Z,101758.02
2019-02-12T02:00:10.418Z,101754.03
2019-02-12T02:02:39.282Z,101745.16
2019-02-12T02:05:09.663Z,101758.13
2019-02-12T02:07:38.554Z,101753.38
2019-02-12T02:10:10.382Z,101748.13
2019-02-12T02:12:39.248Z,101753.62
2019-02-12T02:15:10.742Z,101758.13
2019-02-12T02:17:39.598Z,101753.98
2019-02-12T02:20:10.985Z,101759.80
2019-02-12T02:22:39.885Z,101754.30
2019-02-12T02:25:11.085Z,101757.75
2019-02-12T02:27:39.975Z,101756.97
2019-02-12T02:30:16.325Z,101751.70
2019-02-12T02:32:45.339Z,101768.92
2019-02-12T02:35:14.205Z,101775.05
2019-02-12T02:37:43.071Z,101779.56
2019-02-12T02:40:11.960Z,101778.27
2019-02-12T02:42:40.800Z,101786.50
2019-02-12T02:45:12.098Z,101788.05
2019-02-12T02:47:40.972Z,101793.97
2019-02-12T02:50:10.665Z,101789.20
2019-02-12T02:52:39.530Z,101789.83
2019-02-12T02:55:09.413Z,101798.31
2019-02-12T02:57:38.313Z,101799.72
2019-02-12T03:00:09.610Z,101792.53
2019-02-12T03:02:38.483Z,101788.29
2019-02-12T03:05:09.880Z,101800.09
2019-02-12T03:07:38.733Z,101807.06
2019-02-12T03:10:09.421Z,101796.25
2019-02-12T03:12:38.300Z,101792.90
2019-02-12T03:15:09.627Z,101793.30
2019-02-12T03:17:38.475Z,101804.61
2019-02-12T03:20:11.864Z,101792.69
2019-02-12T03:22:40.707Z,101807.45
2019-02-12T03:25:10.520Z,101804.23
2019-02-12T03:27:39.560Z,101806.44
2019-02-12T03:30:11.045Z,101806.44
2019-02-12T03:32:39.918Z,101800.45
2019-02-12T03:35:10.405Z,101824.94
2019-02-12T03:37:39.261Z,101822.78
2019-02-12T03:40:10.543Z,101826.00
2019-02-12T03:42:39.852Z,101828.19
2019-02-12T03:45:11.431Z,101834.34
2019-02-12T03:47:40.299Z,101834.47
2019-02-12T03:50:11.460Z,101845.38
2019-02-12T03:52:40.275Z,101821.36
2019-02-12T03:55:11.839Z,101836.91
2019-02-12T03:57:40.877Z,101832.55
2019-02-12T04:00:14.973Z,101833.30
2019-02-12T04:03:04.223Z,101837.30
2019-02-12T04:05:33.638Z,101843.46
2019-02-12T04:08:02.824Z,101838.58
2019-02-12T04:10:31.699Z,101826.39
2019-02-12T04:13:00.599Z,101845.10
2019-02-12T04:15:29.448Z,101845.10
2019-02-12T04:17:58.349Z,101828.33
2019-02-12T04:20:27.222Z,101835.64
2019-02-12T04:22:56.062Z,101832.92
2019-02-12T04:25:24.914Z,101836.91
2019-02-12T04:27:55.374Z,101837.16
2019-02-12T04:30:24.538Z,101833.17
2019-02-12T04:32:53.387Z,101826.90
2019-02-12T04:35:22.304Z,101824.59
2019-02-12T04:37:51.179Z,101836.02
2019-02-12T04:40:20.043Z,101833.81
2019-02-12T04:42:48.912Z,101844.61
2019-02-12T04:45:17.756Z,101850.13
2019-02-12T04:47:46.627Z,101854.98
2019-02-12T04:50:15.977Z,101858.97
2019-02-12T04:52:44.835Z,101861.42
2019-02-12T04:55:13.866Z,101866.91
2019-02-12T04:57:42.733Z,101841.91
2019-02-12T05:00:14.396Z,101838.19
2019-02-12T05:02:43.256Z,101828.70
2019-02-12T05:05:12.279Z,101837.05
2019-02-12T05:07:41.149Z,101848.07
2019-02-12T05:10:18.966Z,101844.86
2019-02-12T05:12:47.834Z,101843.72
2019-02-12T05:15:16.697Z,101856.91
2019-02-12T05:17:45.551Z,101864.09
2019-02-12T05:20:15.003Z,101865.88
2019-02-12T05:22:44.077Z,101878.73
2019-02-12T05:25:13.804Z,101869.48
2019-02-12T05:27:42.638Z,101891.04
2019-02-12T05:30:13.421Z,101875.00
2019-02-12T05:32:42.287Z,101869.48
2019-02-12T05:35:11.143Z,101866.41
2019-02-12T05:37:39.996Z,101876.53
2019-02-12T05:40:11.915Z,101886.80
2019-02-12T05:42:40.792Z,101884.63
2019-02-12T05:45:13.710Z,101894.39
2019-02-12T05:47:42.571Z,101906.93
2019-02-12T05:50:13.366Z,101913.62
2019-02-12T05:52:42.344Z,101921.56
2019-02-12T05:55:11.259Z,101930.05
2019-02-12T05:57:40.100Z,101938.37
2019-02-12T06:00:16.233Z,101944.30
2019-02-12T06:02:45.083Z,101946.87
2019-02-12T06:05:30.996Z,101959.33
2019-02-12T06:07:59.850Z,101963.16
2019-02-12T06:10:28.748Z,101963.69
2019-02-12T06:12:57.618Z,101965.47
2019-02-12T06:15:26.477Z,101968.31
2019-02-12T06:17:55.337Z,101983.97
2019-02-12T06:20:24.191Z,101998.08
2019-02-12T06:22:53.054Z,102008.87
2019-02-12T06:25:21.960Z,102008.09
2019-02-12T06:27:50.798Z,101997.08
2019-02-12T06:30:19.692Z,102004.38
2019-02-12T06:32:48.625Z,102011.70
2019-02-12T06:35:17.470Z,102011.70
2019-02-12T06:37:46.344Z,102024.64
2019-02-12T06:40:15.240Z,102033.27
2019-02-12T06:42:44.106Z,102034.66
2019-02-12T06:45:13.985Z,102043.54
2019-02-12T06:47:42.818Z,102042.62
2019-02-12T06:50:12.816Z,102049.67
2019-02-12T06:52:41.672Z,102059.70
2019-02-12T06:55:11.486Z,102062.80
2019-02-12T06:57:40.354Z,102059.98
2019-02-12T07:00:13.547Z,102050.20
2019-02-12T07:03:11.373Z,102060.37
2019-02-12T07:05:45.990Z,102062.55
2019-02-12T07:08:42.398Z,102064.33
2019-02-12T07:11:14.331Z,102061.02
2019-02-12T07:13:46.233Z,102072.57
2019-02-12T07:16:18.151Z,102085.80
2019-02-12T07:19:02.126Z,102093.22
2019-02-12T07:21:45.906Z,102097.47
2019-02-12T07:24:33.155Z,102099.14
2019-02-12T07:27:23.392Z,102092.36
2019-02-12T07:30:12.200Z,102109.30
2019-02-12T07:32:59.211Z,102112.27
2019-02-12T07:35:52.006Z,102120.33
2019-02-12T07:38:52.443Z,102114.95
2019-02-12T07:41:42.382Z,102116.38
2019-02-12T07:44:48.944Z,102120.33
2019-02-12T07:47:37.279Z,102125.22
2019-02-12T07:50:38.916Z,102129.86
2019-02-12T07:53:19.704Z,102126.28
2019-02-12T07:55:51.603Z,102136.03
2019-02-12T07:58:38.297Z,102137.06
2019-02-12T08:01:35.748Z,102131.17
2019-02-12T08:04:19.650Z,102138.98
2019-02-12T08:06:57.220Z,102135.53
2019-02-12T08:09:47.400Z,102140.53
2019-02-12T08:12:45.087Z,102141.95
2019-02-12T08:15:25.997Z,102144.02
2019-02-12T08:18:00.396Z,102162.50
2019-02-12T08:20:47.388Z,102155.80
2019-02-12T08:23:42.115Z,102158.91
2019-02-12T08:26:14.050Z,102170.72
2019-02-12T08:29:13.251Z,102169.82
2019-02-12T08:31:50.918Z,102176.89
2019-02-12T08:34:25.763Z,102176.64
2019-02-12T08:37:06.548Z,102183.56
2019-02-12T08:39:41.199Z,102180.34
2019-02-12T08:42:22.105Z,102185.53
2019-02-12T08:45:10.879Z,102192.34
2019-02-12T08:47:54.838Z,102194.16
2019-02-12T08:50:26.756Z,102197.23
2019-02-12T08:53:22.615Z,102192.59
2019-02-12T08:56:12.676Z,102205.33
2019-02-12T08:58:56.631Z,102205.69
2019-02-12T09:01:31.371Z,102207.12
2019-02-12T09:04:11.958Z,102217.80
2019-02-12T09:06:43.897Z,102216.53
2019-02-12T09:09:36.652Z,102226.69
2019-02-12T09:12:17.318Z,102223.72
2019-02-12T09:15:08.301Z,102229.36
2019-02-12T09:17:51.965Z,102231.93
2019-02-12T09:20:38.959Z,102230.53
2019-02-12T09:23:22.406Z,102235.03
2019-02-12T09:25:54.312Z,102240.67
2019-02-12T09:28:32.206Z,102247.89
2019-02-12T09:31:12.701Z,102248.28
2019-02-12T09:33:50.286Z,102244.03
2019-02-12T09:36:30.995Z,102257.92
2019-02-12T09:39:17.993Z,102257.94
2019-02-12T09:41:58.612Z,102265.02
2019-02-12T09:44:50.080Z,102268.34
2019-02-12T09:47:41.584Z,102278.52
2019-02-12T09:50:19.575Z,102276.97
2019-02-12T09:53:15.628Z,102279.52
2019-02-12T09:56:11.931Z,102284.03
2019-02-12T09:59:08.248Z,102277.25
2019-02-12T10:01:42.740Z,102276.69
2019-02-12T10:04:38.628Z,102297.53
2019-02-12T10:07:39.305Z,102297.03
2019-02-12T10:10:20.008Z,102298.19
2019-02-12T10:13:12.896Z,102297.91
2019-02-12T10:16:10.348Z,102295.45
2019-02-12T10:18:50.571Z,102312.19
2019-02-12T10:21:37.266Z,102318.92
2019-02-12T10:24:19.788Z,102313.38
2019-02-12T10:26:50.770Z,102315.16
2019-02-12T10:29:31.262Z,102316.94
2019-02-12T10:32:08.234Z,102324.28
2019-02-12T10:34:29.595Z,102345.69
2019-02-12T10:36:58.479Z,102336.53
2019-02-12T10:39:27.324Z,102338.97
2019-02-12T10:41:56.178Z,102341.67
2019-02-12T10:44:25.076Z,102326.39
2019-02-12T10:46:53.913Z,102330.90
2019-02-12T10:49:22.798Z,102336.14
2019-02-12T10:51:51.667Z,102326.88
2019-02-12T10:54:27.735Z,102340.14
2019-02-12T10:56:51.731Z,102336.41
2019-02-12T10:59:20.641Z,102341.17
2019-02-12T11:01:49.540Z,102333.30
2019-02-12T11:04:18.382Z,102344.90
2019-02-12T11:06:47.237Z,102348.78
2019-02-12T11:09:16.098Z,102345.03
2019-02-12T11:11:44.949Z,102339.77
2019-02-12T11:14:13.837Z,102344.91
2019-02-12T11:16:42.695Z,102329.58
2019-02-12T11:19:11.565Z,102328.09
2019-02-12T11:21:40.439Z,102329.31
2019-02-12T11:24:09.320Z,102346.85
2019-02-12T11:26:38.166Z,102343.83
2019-02-12T11:29:07.033Z,102341.77
2019-02-12T11:31:35.881Z,102346.30
2019-02-12T11:34:04.750Z,102343.27
2019-02-12T11:36:33.629Z,102336.80
2019-02-12T11:39:02.497Z,102336.49
2019-02-12T11:41:31.377Z,102346.23
2019-02-12T11:44:00.247Z,102337.41
2019-02-12T11:46:29.099Z,102341.20
2019-02-12T11:48:57.975Z,102345.04
2019-02-12T11:51:26.844Z,102345.34
2019-02-12T11:53:55.710Z,102342.92
2019-02-12T11:56:24.552Z,102343.30
2019-02-12T11:58:53.421Z,102342.55
2019-02-12T12:01:23.755Z,102342.55
2019-02-12T12:03:52.640Z,102339.00
2019-02-12T12:06:21.475Z,102345.27
2019-02-12T12:08:50.344Z,102345.27
2019-02-12T12:11:19.263Z,102351.26
2019-02-12T12:13:48.122Z,102355.98
2019-02-12T12:16:17.027Z,102363.27
2019-02-12T12:18:45.906Z,102361.23
2019-02-12T12:21:14.768Z,102361.86
2019-02-12T12:23:43.634Z,102372.77
2019-02-12T12:26:12.493Z,102386.10
2019-02-12T12:28:41.384Z,102377.45
2019-02-12T12:31:10.247Z,102369.72
2019-02-12T12:33:39.108Z,102374.64
2019-02-12T12:36:07.996Z,102371.75
2019-02-12T12:38:36.858Z,102373.88
2019-02-12T12:41:05.711Z,102372.25
2019-02-12T12:43:34.583Z,102376.25
2019-02-12T12:46:03.453Z,102376.09
2019-02-12T12:48:32.303Z,102383.77
2019-02-12T12:51:01.194Z,102389.30
2019-02-12T12:53:30.033Z,102386.19
2019-02-12T12:55:58.917Z,102385.15
2019-02-12T12:58:27.753Z,102392.09
2019-02-12T13:00:56.381Z,102397.69
2019-02-12T13:03:24.920Z,102403.44
2019-02-12T13:05:53.473Z,102401.84
2019-02-12T13:08:22.346Z,102411.98
2019-02-12T13:10:52.620Z,102406.86
2019-02-12T13:13:21.203Z,102412.25
2019-02-12T13:15:49.776Z,102420.09
2019-02-12T13:18:18.631Z,102420.52
2019-02-12T13:20:47.506Z,102419.56
2019-02-12T13:23:16.355Z,102422.02
2019-02-12T13:25:45.231Z,102411.79
2019-02-12T13:28:14.105Z,102422.49
2019-02-12T13:30:42.965Z,102436.11
2019-02-12T13:33:11.843Z,102436.11
2019-02-12T13:35:40.749Z,102428.80
2019-02-12T13:38:09.599Z,102433.97
2019-02-12T13:40:38.467Z,102435.22
2019-02-12T13:43:07.368Z,102433.70
2019-02-12T13:45:36.210Z,102446.35
2019-02-12T13:48:05.067Z,102449.05
2019-02-12T13:50:33.944Z,102447.89
2019-02-12T13:53:02.786Z,102448.29
2019-02-12T13:55:31.673Z,102459.64
2019-02-12T13:58:00.537Z,102461.05
2019-02-12T14:00:29.406Z,102463.87
2019-02-12T14:02:58.300Z,102461.94
2019-02-12T14:05:27.187Z,102458.83
2019-02-12T14:07:56.018Z,102451.97
2019-02-12T14:10:24.929Z,102453.63
2019-02-12T14:12:53.784Z,102453.63
2019-02-12T14:15:22.700Z,102464.09
2019-02-12T14:17:51.554Z,102457.51
2019-02-12T14:20:20.422Z,102457.51
2019-02-12T14:22:49.296Z,102467.19
2019-02-12T14:25:25.307Z,102467.19
2019-02-12T14:27:48.744Z,102472.88
2019-02-12T14:30:19.289Z,102475.44
2019-02-12T14:32:48.150Z,102482.66
2019-02-12T14:35:17.031Z,102481.86
2019-02-12T14:37:45.923Z,102490.63
2019-02-12T14:40:16.118Z,102491.16
2019-02-12T14:42:45.013Z,102488.21
2019-02-12T14:45:16.327Z,102498.77
2019-02-12T14:47:45.203Z,102497.22
2019-02-12T14:50:15.625Z,102499.69
2019-02-12T14:52:44.491Z,102500.22
2019-02-12T14:55:13.408Z,102505.88
2019-02-12T14:57:42.268Z,102505.88
2019-02-12T15:00:13.946Z,102515.41
2019-02-12T15:02:42.822Z,102516.42
2019-02-12T15:05:11.684Z,102509.84
2019-02-12T15:07:40.631Z,102520.30
2019-02-12T15:10:11.729Z,102521.87
2019-02-12T15:12:40.590Z,102519.93
2019-02-12T15:15:10.602Z,102523.92
2019-02-12T15:17:39.548Z,102518.64
2019-02-12T15:20:13.026Z,102531.39
2019-02-12T15:22:41.901Z,102524.19
2019-02-12T15:25:13.143Z,102526.34
2019-02-12T15:27:42.071Z,102527.02
2019-02-12T15:30:18.951Z,102530.10
2019-02-12T15:32:47.799Z,102534.75
2019-02-12T15:35:16.647Z,102535.24
2019-02-12T15:37:45.535Z,102532.79
2019-02-12T15:40:15.977Z,102532.43
2019-02-12T15:42:44.813Z,102534.35
2019-02-12T15:45:16.440Z,102534.98
2019-02-12T15:47:45.338Z,102540.14
2019-02-12T15:50:14.193Z,102544.00
2019-02-12T15:52:43.062Z,102540.93
2019-02-12T15:55:15.963Z,102541.69
2019-02-12T15:57:45.900Z,102537.70
2019-02-12T16:00:20.669Z,102538.45
2019-02-12T16:02:49.775Z,102544.66
2019-02-12T16:05:18.702Z,102541.30
2019-02-12T16:07:47.856Z,102540.79
2019-02-12T16:10:19.671Z,102536.39
2019-02-12T16:12:51.264Z,102538.83
2019-02-12T16:15:22.307Z,102545.01
2019-02-12T16:17:51.072Z,102551.20
2019-02-12T16:20:19.929Z,102542.28
2019-02-12T16:22:48.828Z,102552.34
2019-02-12T16:25:17.727Z,102557.69
2019-02-12T16:27:46.592Z,102563.22
2019-02-12T16:30:22.039Z,102558.09
2019-02-12T16:32:50.904Z,102559.92
2019-02-12T16:35:19.768Z,102553.88
2019-02-12T16:37:48.649Z,102565.05
2019-02-12T16:40:20.502Z,102570.70
2019-02-12T16:42:49.360Z,102575.59
2019-02-12T16:45:37.924Z,102577.47
2019-02-12T16:48:06.792Z,102579.80
2019-02-12T16:50:35.684Z,102585.34
2019-02-12T16:53:04.527Z,102591.93
2019-02-12T16:55:33.404Z,102591.54
2019-02-12T16:58:02.283Z,102600.06
2019-02-12T17:00:31.133Z,102595.95
2019-02-12T17:03:00.041Z,102603.27
2019-02-12T17:05:28.884Z,102601.33
2019-02-12T17:07:57.752Z,102603.67
2019-02-12T17:10:26.641Z,102607.55
2019-02-12T17:12:55.513Z,102609.08
2019-02-12T17:15:24.369Z,102620.36
2019-02-12T17:17:53.252Z,102622.33
2019-02-12T17:20:23.567Z,102633.46
2019-02-12T17:22:52.408Z,102631.95
2019-02-12T17:25:21.314Z,102635.22
2019-02-12T17:27:50.189Z,102628.05
2019-02-12T17:30:19.220Z,102633.18
2019-02-12T17:32:48.097Z,102639.86
2019-02-12T17:35:16.965Z,102636.28
2019-02-12T17:37:45.831Z,102643.97
2019-02-12T17:40:18.802Z,102644.28
2019-02-12T17:42:47.653Z,102642.67
2019-02-12T17:45:18.131Z,102651.42
2019-02-12T17:47:46.978Z,102653.63
2019-02-12T17:50:16.239Z,102658.89
2019-02-12T17:52:45.121Z,102660.13
2019-02-12T17:55:13.999Z,102658.82
2019-02-12T17:57:43.027Z,102659.06
2019-02-12T18:00:19.185Z,102656.81
2019-02-12T18:02:48.068Z,102666.54
2019-02-12T18:05:16.973Z,102665.95
2019-02-12T18:07:45.853Z,102668.97
2019-02-12T18:10:14.729Z,102661.17
2019-02-12T18:12:43.627Z,102665.30
2019-02-12T18:15:14.007Z,102674.44
2019-02-12T18:17:42.909Z,102680.09
2019-02-12T18:20:16.405Z,102676.26
2019-02-12T18:22:45.287Z,102680.58
2019-02-12T18:25:14.268Z,102679.48
2019-02-12T18:27:43.129Z,102678.98
2019-02-12T18:30:16.478Z,102676.66
2019-02-12T18:32:45.349Z,102674.01
2019-02-12T18:35:14.472Z,102671.52
2019-02-12T18:37:43.357Z,102675.80
2019-02-12T18:40:14.025Z,102680.67
2019-02-12T18:42:42.906Z,102674.70
2019-02-12T18:45:14.656Z,102677.13
2019-02-12T18:47:43.587Z,102682.66
2019-02-12T18:50:13.042Z,102686.50
2019-02-12T18:52:41.929Z,102679.36
2019-02-12T18:55:15.417Z,102689.95
2019-02-12T18:57:44.295Z,102689.33
2019-02-12T19:00:15.836Z,102689.41
2019-02-12T19:02:44.725Z,102691.61
2019-02-12T19:05:13.589Z,102692.19
2019-02-12T19:07:43.024Z,102698.42
2019-02-12T19:10:13.853Z,102696.83
2019-02-12T19:12:42.752Z,102702.47
2019-02-12T19:15:16.640Z,102705.98
2019-02-12T19:17:48.719Z,102705.27
2019-02-12T19:20:17.604Z,102698.73
2019-02-12T19:22:46.476Z,102709.41
2019-02-12T19:25:15.583Z,102707.27
2019-02-12T19:27:44.433Z,102709.26
2019-02-12T19:30:17.271Z,102709.69
2019-02-12T19:32:46.125Z,102707.23
2019-02-12T19:35:15.000Z,102710.55
2019-02-12T19:37:43.905Z,102714.36
2019-02-12T19:40:13.327Z,102716.45
2019-02-12T19:42:42.213Z,102712.84
2019-02-12T19:45:15.181Z,102712.41
2019-02-12T19:47:44.052Z,102707.00
2019-02-12T19:50:13.286Z,102710.16
2019-02-12T19:52:42.186Z,102704.46
2019-02-12T19:55:11.461Z,102701.04
2019-02-12T19:57:40.331Z,102703.49
2019-02-12T20:00:19.337Z,102698.34
2019-02-12T20:02:49.173Z,102705.08
2019-02-12T20:05:18.241Z,102704.92
2019-02-12T20:07:47.109Z,102704.58
2019-02-12T20:10:16.127Z,102718.05
2019-02-12T20:12:45.056Z,102714.03
2019-02-12T20:15:23.341Z,102716.11
2019-02-12T20:17:52.282Z,102716.92
2019-02-12T20:20:23.317Z,102711.83
2019-02-12T20:22:52.175Z,102713.66
2019-02-12T20:25:21.450Z,102717.27
2019-02-12T20:27:50.308Z,102718.17
2019-02-12T20:30:19.998Z,102720.39
2019-02-12T20:32:49.342Z,102715.83
2019-02-12T20:35:22.643Z,102710.92
2019-02-12T20:37:51.630Z,102718.33
2019-02-12T20:40:20.509Z,102717.34
2019-02-12T20:42:49.376Z,102712.61
2019-02-12T20:45:19.227Z,102716.50
2019-02-12T20:47:48.252Z,102717.52
2019-02-12T20:50:21.110Z,102723.08
2019-02-12T20:52:49.990Z,102720.83
2019-02-12T20:55:18.873Z,102720.94
2019-02-12T20:57:48.633Z,102720.55
2019-02-12T21:00:22.633Z,102719.78
2019-02-12T21:02:51.521Z,102718.49
2019-02-12T21:05:20.393Z,102717.94
2019-02-12T21:07:49.271Z,102716.66
2019-02-12T21:10:20.378Z,102722.11
2019-02-12T21:12:49.271Z,102719.97
2019-02-12T21:15:25.837Z,102718.45
2019-02-12T21:17:55.041Z,102716.34
2019-02-12T21:20:23.914Z,102717.40
2019-02-12T21:22:52.812Z,102712.88
2019-02-12T21:25:21.672Z,102713.07
2019-02-12T21:27:50.570Z,102712.06
2019-02-12T21:30:24.789Z,102712.14
2019-02-12T21:32:53.655Z,102720.44
2019-02-12T21:35:22.542Z,102715.44
2019-02-12T21:37:51.436Z,102719.07
2019-02-12T21:40:28.207Z,102716.27
2019-02-12T21:42:57.068Z,102710.27
2019-02-12T21:45:25.978Z,102719.58
2019-02-12T21:47:54.868Z,102712.30
2019-02-12T21:50:23.737Z,102709.80
2019-02-12T21:52:52.635Z,102713.34
2019-02-12T21:55:22.168Z,102713.89
2019-02-12T21:57:51.063Z,102720.08
2019-02-12T22:00:23.209Z,102721.26
2019-02-12T22:02:52.066Z,102717.98
2019-02-12T22:05:20.937Z,102720.55
2019-02-12T22:07:49.841Z,102721.22
2019-02-12T22:10:24.243Z,102718.48
2019-02-12T22:12:54.305Z,102715.41
2019-02-12T22:15:23.206Z,102715.84
2019-02-12T22:17:52.090Z,102723.08
2019-02-12T22:20:21.751Z,102731.88
2019-02-12T22:22:50.639Z,102727.30
2019-02-12T22:25:19.584Z,102724.22
2019-02-12T22:27:48.464Z,102721.87
2019-02-12T22:30:19.546Z,102726.98
2019-02-12T22:32:48.412Z,102725.11
2019-02-12T22:35:17.257Z,102726.27
2019-02-12T22:37:46.145Z,102722.08
2019-02-12T22:40:18.650Z,102727.02
2019-02-12T22:42:47.511Z,102729.63
2019-02-12T22:45:22.122Z,102725.89
2019-02-12T22:47:50.991Z,102720.97
2019-02-12T22:50:19.960Z,102727.91
2019-02-12T22:52:48.835Z,102727.60
2019-02-12T22:55:17.719Z,102729.75
2019-02-12T22:57:49.353Z,102727.48
2019-02-12T23:00:48.548Z,102729.83
2019-02-12T23:03:17.488Z,102729.12
2019-02-12T23:05:47.487Z,102727.87
2019-02-12T23:08:16.359Z,102725.58
2019-02-12T23:10:45.243Z,102730.80
2019-02-12T23:13:14.113Z,102726.70
2019-02-12T23:15:43.031Z,102730.64
2019-02-12T23:18:11.864Z,102727.25
2019-02-12T23:20:40.748Z,102723.16
2019-02-12T23:23:09.599Z,102714.70
2019-02-12T23:25:38.455Z,102719.30
2019-02-12T23:28:07.331Z,102710.47
2019-02-12T23:30:36.282Z,102710.77
2019-02-12T23:33:05.329Z,102706.84
2019-02-12T23:35:34.158Z,102711.27
2019-02-12T23:38:04.055Z,102708.91
2019-02-12T23:40:32.923Z,102714.12
2019-02-12T23:43:01.777Z,102709.30
2019-02-12T23:45:30.642Z,102710.97
2019-02-12T23:47:59.519Z,102710.08
2019-02-12T23:50:28.426Z,102713.78
2019-02-12T23:52:57.325Z,102716.53
2019-02-12T23:55:26.168Z,102713.78
2019-02-12T23:57:55.061Z,102711.20
